Time;durP1;ratioP1;P1;durP2;ratioP2;P2;SDS_P1;SDS_P2;PMS_P1;PMS_P2;Temp;Humidity;BMP_temperature;BMP_pressure;BME280_temperature;BME280_humidity;BME280_pressure;Samples;Min_cycle;Max_cycle;Signal;HPM_P1;HPM_P2
2023/09/28 00:01:03;;;;;;;13.05;6.80;;;;;;;19.58;59.44;98549.41;4487489;31;20145;-79
2023/09/28 00:03:30;;;;;;;15.75;7.20;;;;;;;19.97;58.23;98550.06;4487712;31;20088;-79
2023/09/28 00:05:57;;;;;;;14.77;7.03;;;;;;;19.35;60.07;98548.38;4487487;31;20473;-79
2023/09/28 00:08:24;;;;;;;13.48;6.55;;;;;;;19.80;58.97;98535.59;4486823;32;20171;-79
2023/09/28 00:10:56;;;;;;;14.63;6.90;;;;;;;19.92;58.22;98543.41;4487843;31;20151;-79
2023/09/28 00:13:23;;;;;;;13.65;6.80;;;;;;;19.65;58.40;98542.75;4487275;31;20077;-79
2023/09/28 00:15:50;;;;;;;15.32;7.22;;;;;;;19.85;58.03;98538.72;4487877;31;20084;-79
2023/09/28 00:18:17;;;;;;;23.48;7.05;;;;;;;19.77;58.35;98534.03;4487721;31;20114;-79
2023/09/28 00:20:44;;;;;;;17.05;6.97;;;;;;;19.81;58.10;98539.88;4487325;31;20092;-79
2023/09/28 00:23:11;;;;;;;13.07;6.57;;;;;;;19.77;58.57;98536.63;4487633;32;20088;-79
2023/09/28 00:25:38;;;;;;;17.40;7.32;;;;;;;20.03;56.86;98536.53;4487672;32;20509;-79
2023/09/28 00:28:06;;;;;;;14.00;6.57;;;;;;;19.53;57.97;98533.97;4486069;31;20096;-79
2023/09/28 00:30:33;;;;;;;14.32;6.97;;;;;;;20.16;56.43;98532.91;4487654;31;20422;-79
2023/09/28 00:33:00;;;;;;;14.65;6.65;;;;;;;20.36;55.40;98533.19;4487492;31;20073;-79
2023/09/28 00:35:27;;;;;;;13.07;6.62;;;;;;;19.70;57.02;98524.13;4487058;31;20164;-79
2023/09/28 00:37:54;;;;;;;13.82;6.75;;;;;;;19.31;57.89;98529.44;4487714;31;20103;-79
2023/09/28 00:40:28;;;;;;;13.98;7.72;;;;;;;19.83;55.94;98536.22;4486424;32;20107;-79
2023/09/28 00:42:57;;;;;;;16.65;6.85;;;;;;;19.30;57.75;98525.16;4487274;31;20099;-79
2023/09/28 00:45:25;;;;;;;13.77;6.55;;;;;;;19.27;57.76;98530.59;4487486;31;20108;-79
2023/09/28 00:48:04;;;;;;;15.10;7.65;;;;;;;18.90;58.80;98529.72;4486362;32;20503;-79
2023/09/28 00:50:31;;;;;;;16.55;7.70;;;;;;;19.33;58.56;98524.94;4486480;32;20132;-79
2023/09/28 00:53:00;;;;;;;15.98;7.80;;;;;;;18.97;60.02;98524.91;4487261;31;20160;-79
2023/09/28 00:55:29;;;;;;;15.02;7.53;;;;;;;19.23;60.33;98520.44;4485833;32;20109;-79
2023/09/28 00:58:01;;;;;;;16.23;7.32;;;;;;;19.44;60.12;98528.56;4487493;31;20103;-79
2023/09/28 01:00:33;;;;;;;17.90;7.25;;;;;;;19.82;58.57;98533.69;4487395;31;20084;-79
2023/09/28 01:03:05;;;;;;;16.12;7.70;;;;;;;19.83;57.87;98530.13;4487052;31;20081;-79
2023/09/28 01:05:34;;;;;;;16.70;7.53;;;;;;;19.54;58.86;98524.34;4487454;31;20112;-79
2023/09/28 01:08:07;;;;;;;14.52;7.70;;;;;;;19.04;59.96;98529.59;4487429;31;20171;-79
2023/09/28 01:10:35;;;;;;;15.82;7.03;;;;;;;18.96;60.17;98525.84;4487008;31;20371;-79
2023/09/28 01:13:15;;;;;;;14.50;7.45;;;;;;;19.16;60.02;98525.28;4485974;31;20099;-79
2023/09/28 01:15:47;;;;;;;16.50;7.65;;;;;;;19.96;56.83;98523.03;4486201;32;20503;-79
2023/09/28 01:18:16;;;;;;;13.38;6.80;;;;;;;19.56;57.91;98533.78;4487053;31;20106;-79
2023/09/28 01:20:48;;;;;;;16.50;7.10;;;;;;;19.81;56.43;98522.41;4486036;32;20153;-79
2023/09/28 01:23:15;;;;;;;14.90;7.03;;;;;;;19.79;55.32;98519.06;4486839;31;20210;-79
2023/09/28 01:25:46;;;;;;;14.55;7.22;;;;;;;19.27;56.80;98511.47;4487090;31;20088;-79
2023/09/28 01:28:13;;;;;;;19.33;8.15;;;;;;;18.81;57.69;98516.44;4486993;31;20104;-79
2023/09/28 01:30:40;;;;;;;14.48;7.43;;;;;;;18.74;58.36;98516.03;4486783;31;20094;-79
2023/09/28 01:33:09;;;;;;;15.82;7.62;;;;;;;18.69;59.09;98518.94;4486931;31;20110;-79
2023/09/28 01:35:36;;;;;;;17.85;7.93;;;;;;;19.61;57.21;98521.22;4486936;32;20160;-79
2023/09/28 01:38:23;;;;;;;18.12;7.90;;;;;;;19.34;57.94;98518.75;4486674;31;20176;-79
2023/09/28 01:40:50;;;;;;;15.15;7.40;;;;;;;18.70;59.84;98518.00;4485512;32;20102;-79
2023/09/28 01:43:17;;;;;;;14.00;7.10;;;;;;;19.46;57.35;98524.06;4486730;31;20119;-79
2023/09/28 01:45:45;;;;;;;16.87;6.97;;;;;;;19.29;57.33;98523.47;4486386;31;20156;-79
2023/09/28 01:48:12;;;;;;;15.85;6.97;;;;;;;19.13;58.09;98528.09;4485815;32;20111;-79
2023/09/28 01:50:39;;;;;;;14.65;7.05;;;;;;;19.01;58.14;98518.50;4486831;31;20141;-79
2023/09/28 01:53:06;;;;;;;17.75;7.70;;;;;;;19.34;57.01;98523.97;4486300;31;20159;-79
2023/09/28 01:55:33;;;;;;;15.10;8.00;;;;;;;19.15;57.64;98531.47;4486595;31;20494;-79
2023/09/28 01:58:02;;;;;;;19.42;8.10;;;;;;;19.83;56.84;98523.13;4486696;31;20110;-78
2023/09/28 02:00:29;;;;;;;15.65;7.53;;;;;;;19.52;57.29;98519.22;4486320;31;20100;-79
2023/09/28 02:02:56;;;;;;;15.15;7.50;;;;;;;18.63;59.71;98516.72;4486554;31;20102;-79
2023/09/28 02:05:25;;;;;;;16.48;7.62;;;;;;;18.73;59.73;98512.59;4486279;31;20096;-79
2023/09/28 02:07:52;;;;;;;18.60;8.35;;;;;;;18.78;59.24;98514.87;4486571;32;20111;-79
2023/09/28 02:10:19;;;;;;;17.17;7.32;;;;;;;18.74;59.23;98514.25;4485383;32;20089;-79
2023/09/28 02:12:47;;;;;;;17.10;7.93;;;;;;;19.57;56.90;98516.31;4486056;32;20081;-79
2023/09/28 02:15:17;;;;;;;16.60;7.82;;;;;;;18.65;59.00;98517.50;4486300;31;20097;-79
2023/09/28 02:17:44;;;;;;;15.20;8.23;;;;;;;18.35;60.19;98516.91;4486454;31;20100;-79
2023/09/28 02:20:15;;;;;;;17.12;7.55;;;;;;;18.69;59.81;98512.88;4484897;32;20438;-79
2023/09/28 02:22:44;;;;;;;19.67;7.75;;;;;;;18.65;60.14;98521.87;4486207;31;20413;-79
2023/09/28 02:25:17;;;;;;;17.83;7.60;;;;;;;18.85;60.24;98516.13;4486296;32;20450;-79
2023/09/28 02:27:49;;;;;;;15.77;7.43;;;;;;;18.91;58.89;98518.31;4484596;32;20164;-79
2023/09/28 02:30:19;;;;;;;16.70;8.20;;;;;;;18.55;60.23;98519.03;4485160;32;20085;-79
2023/09/28 02:32:47;;;;;;;17.35;7.43;;;;;;;19.38;58.45;98522.00;4484932;31;20454;-79
2023/09/28 02:35:16;;;;;;;18.85;8.35;;;;;;;19.05;57.88;98525.22;4485579;31;20097;-79
2023/09/28 02:37:45;;;;;;;14.25;7.35;;;;;;;18.37;59.92;98522.87;4485079;32;20108;-79
2023/09/28 02:40:12;;;;;;;16.05;7.32;;;;;;;18.82;58.97;98526.81;4486084;31;20471;-79
2023/09/28 02:42:40;;;;;;;17.35;7.40;;;;;;;18.95;56.89;98529.41;4485635;31;20137;-79
2023/09/28 02:45:14;;;;;;;13.70;7.07;;;;;;;18.35;58.76;98527.38;4485966;32;20093;-79
2023/09/28 02:47:43;;;;;;;13.98;7.47;;;;;;;18.38;58.84;98530.59;4485763;31;20088;-79
2023/09/28 02:50:11;;;;;;;15.13;7.70;;;;;;;18.90;57.45;98529.72;4485939;31;20084;-79
2023/09/28 02:52:42;;;;;;;15.07;7.00;;;;;;;19.36;56.23;98526.50;4486526;31;20136;-79
2023/09/28 02:55:13;;;;;;;16.17;7.70;;;;;;;19.12;57.32;98526.44;4487911;31;20096;-79
2023/09/28 02:57:40;;;;;;;17.70;7.10;;;;;;;19.36;56.13;98529.97;4488367;31;20111;-79
2023/09/28 03:03:05;;;;;;;18.05;8.13;;;;;;;19.17;56.59;98532.19;4486308;31;20084;-79
2023/09/28 03:05:32;;;;;;;17.10;7.15;;;;;;;18.90;57.28;98531.50;4488292;31;20142;-79
2023/09/28 03:07:59;;;;;;;15.40;7.12;;;;;;;18.72;58.76;98537.06;4488221;32;20107;-79
2023/09/28 03:10:26;;;;;;;14.45;7.40;;;;;;;18.94;57.55;98538.19;4487916;31;20484;-79
2023/09/28 03:12:56;;;;;;;14.95;7.50;;;;;;;18.62;58.23;98535.97;4488083;31;20088;-79
2023/09/28 03:15:24;;;;;;;15.57;7.12;;;;;;;18.50;58.47;98542.00;4487894;31;20101;-79
2023/09/28 03:17:51;;;;;;;16.12;7.12;;;;;;;18.51;58.22;98541.09;4488157;31;20127;-78
2023/09/28 03:20:19;;;;;;;15.93;7.18;;;;;;;18.60;58.55;98537.00;4488081;31;20118;-79
2023/09/28 03:22:49;;;;;;;12.90;6.62;;;;;;;18.91;57.11;98533.16;4487675;31;20136;-78
2023/09/28 03:25:18;;;;;;;17.48;7.07;;;;;;;18.35;58.78;98537.81;4488162;31;20089;-79
2023/09/28 03:27:47;;;;;;;13.55;6.45;;;;;;;18.64;58.11;98539.34;4486686;32;20100;-79
2023/09/28 03:30:15;;;;;;;14.45;6.40;;;;;;;18.13;59.87;98534.00;4487746;31;20084;-79
2023/09/28 03:32:43;;;;;;;13.00;6.37;;;;;;;18.59;58.33;98537.94;4486766;31;20098;-79
2023/09/28 03:35:11;;;;;;;14.52;6.85;;;;;;;18.85;57.81;98541.44;4487907;31;20120;-79
2023/09/28 03:37:42;;;;;;;17.45;7.05;;;;;;;18.85;58.26;98534.44;4487641;31;20505;-79
2023/09/28 03:40:10;;;;;;;16.25;7.57;;;;;;;17.93;60.95;98540.53;4488068;31;20080;-79
2023/09/28 03:42:39;;;;;;;15.82;6.90;;;;;;;18.30;60.14;98545.97;4487894;31;20160;-79
2023/09/28 03:45:09;;;;;;;15.80;6.70;;;;;;;18.53;59.55;98547.03;4487511;31;20156;-79
2023/09/28 03:47:40;;;;;;;16.40;7.62;;;;;;;18.53;59.99;98546.22;4486986;32;20122;-79
2023/09/28 03:50:09;;;;;;;15.88;7.95;;;;;;;18.47;60.54;98537.00;4487100;32;20100;-78
2023/09/28 03:52:37;;;;;;;16.50;7.60;;;;;;;18.76;59.05;98541.12;4487537;31;20140;-79
2023/09/28 03:55:12;;;;;;;14.80;7.53;;;;;;;18.64;59.05;98543.72;4487793;31;20140;-79
2023/09/28 03:57:39;;;;;;;13.52;7.00;;;;;;;18.86;58.02;98554.41;4487487;32;20084;-79
2023/09/28 04:00:12;;;;;;;15.05;7.30;;;;;;;19.00;56.89;98549.06;4487866;31;20747;-79
2023/09/28 04:02:44;;;;;;;14.82;7.53;;;;;;;18.31;58.79;98545.03;4487751;31;20089;-79
2023/09/28 04:05:15;;;;;;;16.67;7.78;;;;;;;18.28;59.79;98552.22;4487524;31;20108;-79
2023/09/28 04:07:43;;;;;;;16.00;8.20;;;;;;;19.25;56.65;98549.97;4487800;31;20179;-79
2023/09/28 04:10:11;;;;;;;15.43;7.85;;;;;;;18.84;57.97;98550.22;4487726;31;20129;-79
2023/09/28 04:12:38;;;;;;;20.62;7.65;;;;;;;18.69;58.57;98547.69;4486183;31;20073;-79
2023/09/28 04:15:07;;;;;;;16.98;8.10;;;;;;;19.07;55.88;98558.16;4487634;32;20363;-79
2023/09/28 04:17:35;;;;;;;14.60;6.80;;;;;;;18.86;55.66;98553.56;4486606;32;20438;-79
2023/09/28 04:20:06;;;;;;;14.40;7.20;;;;;;;19.02;54.83;98554.16;4486242;32;20092;-79
2023/09/28 04:22:33;;;;;;;14.65;6.87;;;;;;;18.85;55.78;98552.72;4486579;31;20336;-79
2023/09/28 04:25:00;;;;;;;17.33;7.57;;;;;;;18.90;54.82;98555.03;4487611;31;20092;-79
2023/09/28 04:27:27;;;;;;;13.15;6.47;;;;;;;18.51;56.16;98562.00;4486023;32;20443;-79
2023/09/28 04:29:54;;;;;;;17.30;7.10;;;;;;;18.86;55.03;98559.63;4487765;31;20097;-79
2023/09/28 04:32:21;;;;;;;16.02;7.40;;;;;;;18.18;56.14;98562.41;4486422;32;20093;-79
2023/09/28 04:34:49;;;;;;;15.90;7.25;;;;;;;18.01;57.13;98558.31;4487048;31;20115;-79
2023/09/28 04:37:19;;;;;;;17.20;6.90;;;;;;;18.01;56.80;98560.09;4487733;31;20110;-79
2023/09/28 04:39:46;;;;;;;17.40;7.15;;;;;;;17.80;57.69;98555.31;4486247;32;20135;-79
2023/09/28 04:42:13;;;;;;;13.80;7.00;;;;;;;18.36;56.60;98563.00;4487465;31;20084;-79
2023/09/28 04:44:43;;;;;;;20.95;8.10;;;;;;;17.87;58.16;98566.22;4487479;31;20112;-79
2023/09/28 04:47:11;;;;;;;16.92;6.62;;;;;;;17.87;58.47;98556.59;4487199;31;20118;-79
2023/09/28 04:49:41;;;;;;;13.60;6.45;;;;;;;18.23;57.19;98556.91;4487501;31;20095;-79
2023/09/28 04:52:10;;;;;;;16.08;7.07;;;;;;;17.68;58.64;98560.44;4487518;31;20080;-79
2023/09/28 04:54:40;;;;;;;15.82;7.57;;;;;;;18.27;57.37;98559.22;4486986;31;20480;-78
2023/09/28 04:57:07;;;;;;;19.48;7.55;;;;;;;19.14;55.16;98566.44;4487643;31;20356;-78
2023/09/28 04:59:38;;;;;;;16.92;7.15;;;;;;;19.05;54.80;98570.50;4487447;31;20089;-78
2023/09/28 05:02:06;;;;;;;15.43;6.32;;;;;;;18.86;54.55;98564.84;4487044;31;20076;-79
2023/09/28 05:04:33;;;;;;;17.80;7.47;;;;;;;18.50;56.02;98566.38;4487311;31;20137;-79
2023/09/28 05:07:00;;;;;;;15.13;6.80;;;;;;;17.87;57.87;98563.59;4486253;32;20169;-79
2023/09/28 05:09:27;;;;;;;15.70;7.03;;;;;;;17.86;58.34;98564.50;4486910;32;20299;-78
2023/09/28 05:11:59;;;;;;;14.52;6.22;;;;;;;17.93;58.58;98564.03;4487235;31;20092;-79
2023/09/28 05:14:26;;;;;;;12.70;6.43;;;;;;;18.74;56.17;98569.16;4485507;32;20158;-79
2023/09/28 05:16:54;;;;;;;13.18;6.37;;;;;;;18.43;57.18;98562.50;4486949;31;20096;-79
2023/09/28 05:19:21;;;;;;;15.07;6.53;;;;;;;18.83;56.27;98572.91;4487233;31;20101;-79
2023/09/28 05:21:49;;;;;;;15.38;6.47;;;;;;;18.79;56.74;98569.66;4486930;32;20582;-78
2023/09/28 05:24:16;;;;;;;15.13;6.37;;;;;;;18.37;58.86;98565.50;4487161;32;20157;-78
2023/09/28 05:26:43;;;;;;;18.50;7.68;;;;;;;18.70;58.92;98565.03;4486933;31;20159;-79
2023/09/28 05:29:10;;;;;;;14.98;6.93;;;;;;;19.37;56.41;98570.03;4486570;32;20230;-78
2023/09/28 05:31:37;;;;;;;16.00;7.00;;;;;;;19.24;57.89;98570.03;4487094;31;20080;-79
2023/09/28 05:34:05;;;;;;;16.98;6.95;;;;;;;19.63;55.94;98576.06;4485774;31;20484;-79
2023/09/28 05:36:33;;;;;;;16.80;7.25;;;;;;;20.12;55.01;98578.63;4486557;31;20100;-79
2023/09/28 05:39:00;;;;;;;16.83;7.53;;;;;;;20.27;55.13;98573.19;4485741;32;20137;-79
2023/09/28 05:41:27;;;;;;;14.60;6.70;;;;;;;21.24;53.01;98589.38;4486983;31;20114;-79
2023/09/28 05:43:54;;;;;;;12.85;6.70;;;;;;;21.39;51.02;98582.16;4486459;31;20149;-79
2023/09/28 05:46:22;;;;;;;14.50;5.97;;;;;;;22.98;47.76;98579.69;4486905;31;20571;-80
2023/09/28 05:48:49;;;;;;;17.55;6.68;;;;;;;24.08;45.59;98578.78;4486736;32;20152;-79
2023/09/28 05:51:16;;;;;;;14.18;6.25;;;;;;;24.91;43.62;98587.91;4485214;32;20483;-79
2023/09/28 05:53:43;;;;;;;14.38;6.57;;;;;;;25.92;41.43;98591.53;4485425;32;20451;-80
2023/09/28 05:56:13;;;;;;;13.62;6.60;;;;;;;26.50;39.83;98589.31;4486606;31;20092;-79
2023/09/28 05:58:40;;;;;;;11.55;6.62;;;;;;;27.32;38.86;98592.50;4486212;31;20089;-82
2023/09/28 06:01:07;;;;;;;16.62;7.15;;;;;;;28.21;37.96;98595.47;4486567;31;20167;-80
2023/09/28 06:03:35;;;;;;;16.87;6.78;;;;;;;28.69;37.46;98582.41;4486639;31;20097;-80
2023/09/28 06:06:16;;;;;;;13.13;7.22;;;;;;;28.65;36.82;98591.72;4486087;31;20100;-79
2023/09/28 06:08:44;;;;;;;15.32;7.47;;;;;;;28.97;35.33;98596.19;4486460;31;20080;-78
2023/09/28 06:11:15;;;;;;;15.98;7.28;;;;;;;29.06;35.25;98601.31;4485942;32;20159;-73
2023/09/28 06:13:44;;;;;;;14.05;7.00;;;;;;;28.72;35.90;98601.50;4486273;31;20101;-74
2023/09/28 06:16:30;;;;;;;15.18;7.70;;;;;;;28.21;36.75;98600.78;4486011;31;20268;-75
2023/09/28 06:18:58;;;;;;;13.98;7.90;;;;;;;28.11;37.44;98605.41;4486000;31;20085;-76
2023/09/28 06:21:25;;;;;;;13.13;7.37;;;;;;;28.10;38.21;98597.63;4486205;31;20537;-76
2023/09/28 06:23:52;;;;;;;15.38;6.72;;;;;;;28.38;38.47;98603.47;4486130;32;20153;-77
2023/09/28 06:26:19;;;;;;;18.33;7.82;;;;;;;29.28;36.80;98606.91;4486273;31;20109;-77
2023/09/28 06:29:06;;;;;;;15.82;7.30;;;;;;;29.41;35.43;98609.00;4488230;31;20084;-78
2023/09/28 06:31:33;;;;;;;13.77;6.93;;;;;;;29.02;36.13;98613.25;4488357;32;20106;-77
2023/09/28 06:34:01;;;;;;;14.25;7.07;;;;;;;28.76;37.15;98610.78;4487820;31;20101;-77
2023/09/28 06:36:29;;;;;;;17.52;7.40;;;;;;;27.37;39.98;98611.44;4488348;32;20149;-77
2023/09/28 06:39:03;;;;;;;12.88;7.28;;;;;;;25.54;42.06;98611.91;4487099;32;20116;-77
2023/09/28 06:41:30;;;;;;;17.27;6.80;;;;;;;26.68;41.37;98609.62;4488369;31;20103;-77
2023/09/28 06:43:57;;;;;;;14.40;6.60;;;;;;;26.93;42.04;98615.94;4488066;31;20101;-78
2023/09/28 06:46:24;;;;;;;15.57;6.32;;;;;;;27.60;40.73;98617.81;4486934;32;20443;-77
2023/09/28 06:48:51;;;;;;;15.32;6.93;;;;;;;26.94;41.75;98617.59;4488282;31;20088;-77
2023/09/28 06:51:22;;;;;;;15.77;6.78;;;;;;;26.73;42.17;98620.59;4488175;31;20515;-77
2023/09/28 06:53:49;;;;;;;14.93;6.93;;;;;;;26.72;42.31;98619.75;4487908;31;20096;-77
2023/09/28 06:56:16;;;;;;;18.83;6.53;;;;;;;25.83;43.65;98629.44;4488126;31;20543;-77
2023/09/28 06:58:44;;;;;;;14.48;6.35;;;;;;;26.86;42.06;98628.13;4488294;31;20084;-77
2023/09/28 07:01:11;;;;;;;13.25;6.43;;;;;;;26.76;42.38;98622.91;4487810;31;20084;-78
2023/09/28 07:03:38;;;;;;;12.75;6.60;;;;;;;27.38;40.14;98628.97;4488157;31;20096;-77
2023/09/28 07:06:05;;;;;;;12.90;6.93;;;;;;;26.51;39.96;98617.44;4487996;32;20114;-77
2023/09/28 07:08:32;;;;;;;12.68;6.15;;;;;;;26.86;40.27;98623.66;4487846;31;20103;-77
2023/09/28 07:10:59;;;;;;;15.32;6.95;;;;;;;25.84;41.92;98625.81;4486867;32;20151;-77
2023/09/28 07:13:27;;;;;;;13.40;6.72;;;;;;;26.88;40.40;98616.38;4488078;31;20145;-78
2023/09/28 07:15:56;;;;;;;13.95;6.40;;;;;;;26.09;41.02;98625.12;4487627;31;20085;-77
2023/09/28 07:18:25;;;;;;;15.98;6.28;;;;;;;25.54;42.34;98626.94;4488147;31;20084;-78
2023/09/28 07:20:53;;;;;;;14.32;6.28;;;;;;;25.13;41.25;98630.81;4488047;31;20072;-78
2023/09/28 07:23:20;;;;;;;14.55;6.18;;;;;;;25.14;43.49;98629.84;4487658;31;20096;-78
2023/09/28 07:25:50;;;;;;;16.33;6.45;;;;;;;23.36;44.83;98621.97;4487807;31;20111;-78
2023/09/28 07:28:18;;;;;;;13.95;7.50;;;;;;;23.12;47.85;98631.13;4486327;32;20099;-78
2023/09/28 07:30:45;;;;;;;14.40;6.30;;;;;;;23.70;45.82;98628.78;4488064;31;20436;-78
2023/09/28 07:33:13;;;;;;;13.10;7.07;;;;;;;23.79;45.39;98634.06;4487905;31;20101;-77
2023/09/28 07:35:40;;;;;;;14.87;6.75;;;;;;;24.07;45.58;98635.13;4487336;32;20447;-78
2023/09/28 07:38:07;;;;;;;13.45;5.93;;;;;;;24.40;44.91;98635.72;4487664;32;20114;-78
2023/09/28 07:40:34;;;;;;;15.57;6.45;;;;;;;24.59;43.99;98638.38;4487805;31;20108;-78
2023/09/28 07:43:14;;;;;;;15.23;6.72;;;;;;;23.20;47.33;98634.78;4487615;31;20096;-78
2023/09/28 07:45:42;;;;;;;15.90;6.95;;;;;;;24.22;45.34;98646.09;4487752;31;20097;-78
2023/09/28 07:48:11;;;;;;;13.73;7.10;;;;;;;23.91;46.44;98643.53;4487853;31;20151;-78
2023/09/28 07:50:38;;;;;;;14.60;6.90;;;;;;;25.26;43.34;98647.19;4487534;31;20096;-78
2023/09/28 07:53:05;;;;;;;13.45;6.70;;;;;;;25.48;43.28;98646.00;4487750;31;20115;-78
2023/09/28 07:55:32;;;;;;;16.00;7.00;;;;;;;25.31;42.42;98645.78;4486357;32;20108;-78
2023/09/28 07:57:59;;;;;;;14.48;7.28;;;;;;;25.24;44.06;98654.41;4487529;31;20091;-78
2023/09/28 08:00:47;;;;;;;14.25;7.25;;;;;;;24.35;44.89;98651.97;4487667;31;20084;-78
2023/09/28 08:03:14;;;;;;;12.70;6.43;;;;;;;25.68;43.22;98648.41;4487459;31;20089;-78
2023/09/28 08:05:41;;;;;;;14.98;7.05;;;;;;;25.49;41.98;98655.56;4486445;32;20156;-78
2023/09/28 08:08:08;;;;;;;13.15;6.95;;;;;;;24.30;45.76;98653.31;4487854;31;20088;-77
2023/09/28 08:10:43;;;;;;;17.65;7.85;;;;;;;24.57;45.08;98650.88;4487476;31;20552;-78
2023/09/28 08:13:10;;;;;;;18.67;8.07;;;;;;;24.77;43.87;98652.50;4487634;31;20101;-78
2023/09/28 08:15:40;;;;;;;16.35;7.50;;;;;;;25.56;42.84;98654.03;4487406;31;20145;-78
2023/09/28 08:18:08;;;;;;;17.83;8.68;;;;;;;26.09;42.63;98656.00;4487367;31;20098;-78
2023/09/28 08:20:36;;;;;;;17.40;7.70;;;;;;;26.28;41.65;98658.53;4487533;31;20100;-78
2023/09/28 08:23:06;;;;;;;16.65;7.62;;;;;;;25.36;43.51;98651.44;4487471;31;20104;-77
2023/09/28 08:25:35;;;;;;;17.48;8.23;;;;;;;26.85;39.84;98652.94;4487111;31;20159;-78
2023/09/28 08:28:02;;;;;;;15.95;8.13;;;;;;;27.64;39.21;98648.31;4487406;31;20085;-78
2023/09/28 08:30:29;;;;;;;19.90;7.57;;;;;;;27.28;39.77;98649.47;4486390;32;20088;-77
2023/09/28 08:32:56;;;;;;;16.90;8.15;;;;;;;26.15;41.62;98660.69;4487130;31;20164;-77
2023/09/28 08:35:23;;;;;;;18.70;7.50;;;;;;;25.80;42.33;98661.47;4487342;31;20156;-77
2023/09/28 08:37:51;;;;;;;14.13;7.18;;;;;;;25.83;42.44;98667.28;4486406;32;20084;-77
2023/09/28 08:40:18;;;;;;;14.02;7.82;;;;;;;25.60;42.87;98664.16;4485947;32;20080;-77
2023/09/28 08:42:46;;;;;;;16.48;7.30;;;;;;;25.24;44.83;98663.16;4487469;31;20111;-77
2023/09/28 08:45:16;;;;;;;14.50;6.25;;;;;;;25.50;42.22;98662.53;4487114;31;20144;-77
2023/09/28 08:47:48;;;;;;;14.75;7.05;;;;;;;25.77;42.19;98657.31;4486247;32;20097;-77
2023/09/28 08:50:32;;;;;;;14.43;6.47;;;;;;;26.22;40.90;98667.87;4486301;31;20716;-77
2023/09/28 08:53:00;;;;;;;14.05;6.65;;;;;;;25.45;43.09;98662.97;4487257;31;20124;-77
2023/09/28 08:55:28;;;;;;;14.20;6.85;;;;;;;26.32;42.44;98674.94;4486153;32;20160;-77
2023/09/28 08:57:57;;;;;;;14.63;6.87;;;;;;;27.10;40.91;98660.09;4486303;32;20088;-77
2023/09/28 09:00:26;;;;;;;20.08;6.87;;;;;;;26.98;41.10;98664.78;4487136;31;20087;-77
2023/09/28 09:02:53;;;;;;;13.57;6.95;;;;;;;27.61;39.45;98664.53;4487194;32;20111;-77
2023/09/28 09:05:20;;;;;;;15.43;6.90;;;;;;;27.53;39.74;98663.66;4485980;32;20123;-77
2023/09/28 09:07:52;;;;;;;18.30;7.62;;;;;;;28.15;39.04;98667.75;4486874;32;20138;-77
2023/09/28 09:10:22;;;;;;;17.50;6.72;;;;;;;27.66;40.70;98669.41;4486149;32;20461;-77
2023/09/28 09:12:49;;;;;;;14.75;7.22;;;;;;;27.37;40.20;98665.25;4487170;31;20145;-77
2023/09/28 09:15:17;;;;;;;15.90;6.55;;;;;;;26.44;42.75;98661.34;4486719;31;20160;-77
2023/09/28 09:17:44;;;;;;;14.87;6.72;;;;;;;27.45;40.12;98663.66;4487192;31;20084;-78
2023/09/28 09:20:12;;;;;;;17.00;7.30;;;;;;;28.36;38.40;98669.97;4487148;31;20419;-77
2023/09/28 09:22:40;;;;;;;14.90;6.47;;;;;;;29.11;37.89;98669.88;4485639;32;20149;-78
2023/09/28 09:25:43;;;;;;;12.80;6.45;;;;;;;29.12;37.50;98660.91;4487060;31;20108;-77
2023/09/28 09:28:12;;;;;;;12.15;6.55;;;;;;;29.39;36.95;98657.03;4486719;32;20146;-77
2023/09/28 09:30:40;;;;;;;15.27;6.12;;;;;;;30.17;35.39;98664.25;4486936;31;20136;-77
2023/09/28 09:33:07;;;;;;;16.70;5.87;;;;;;;29.94;35.28;98658.84;4485843;31;20152;-77
2023/09/28 09:35:35;;;;;;;18.35;6.45;;;;;;;30.46;34.47;98663.56;4486641;31;20106;-77
2023/09/28 09:38:02;;;;;;;12.75;5.47;;;;;;;29.48;35.54;98652.56;4486953;31;20152;-77
2023/09/28 09:40:30;;;;;;;15.43;5.85;;;;;;;29.96;34.95;98646.19;4485814;32;20081;-77
2023/09/28 09:43:08;;;;;;;13.38;5.93;;;;;;;30.50;34.76;98648.88;4486376;31;20154;-77
2023/09/28 09:45:38;;;;;;;14.52;6.07;;;;;;;29.24;36.00;98650.75;4486769;32;20122;-77
2023/09/28 09:48:09;;;;;;;11.20;5.78;;;;;;;30.06;35.30;98653.97;4485720;32;20171;-77
2023/09/28 09:50:38;;;;;;;15.93;6.65;;;;;;;30.46;33.87;98655.56;4485532;32;20147;-77
2023/09/28 09:53:07;;;;;;;14.32;5.30;;;;;;;30.18;34.94;98653.41;4485469;32;20105;-77
2023/09/28 09:55:35;;;;;;;16.98;5.60;;;;;;;30.32;34.05;98651.03;4484876;32;20485;-77
2023/09/28 09:58:07;;;;;;;13.32;5.45;;;;;;;30.86;33.19;98645.66;4485415;32;20148;-80
2023/09/28 10:00:37;;;;;;;13.65;5.18;;;;;;;31.53;31.51;98648.31;4486009;32;20147;-80
2023/09/28 10:03:05;;;;;;;12.25;5.00;;;;;;;30.59;31.44;98645.16;4487077;31;20133;-79
2023/09/28 10:05:34;;;;;;;12.10;4.87;;;;;;;30.57;31.53;98643.69;4488384;31;20105;-79
2023/09/28 10:08:03;;;;;;;13.23;4.87;;;;;;;30.50;31.61;98649.69;4488723;31;20450;-80
2023/09/28 10:10:31;;;;;;;11.85;5.25;;;;;;;31.18;30.53;98653.31;4488224;31;20088;-78
2023/09/28 10:12:58;;;;;;;11.63;4.62;;;;;;;30.21;32.58;98647.75;4487225;31;20455;-78
2023/09/28 10:15:25;;;;;;;12.68;4.97;;;;;;;31.04;31.12;98640.78;4487341;32;20089;-79
2023/09/28 10:17:53;;;;;;;12.57;4.80;;;;;;;32.15;31.30;98646.03;4487162;32;20429;-79
2023/09/28 10:20:20;;;;;;;11.15;4.68;;;;;;;32.72;29.36;98647.03;4488539;31;20579;-79
2023/09/28 10:22:48;;;;;;;11.80;4.82;;;;;;;32.58;28.71;98645.25;4487248;31;20124;-79
2023/09/28 10:25:18;;;;;;;13.13;4.47;;;;;;;32.93;29.16;98638.19;4487949;31;20097;-79
2023/09/28 10:27:45;;;;;;;9.27;4.75;;;;;;;32.93;28.88;98643.53;4488289;32;20080;-79
2023/09/28 10:30:23;;;;;;;9.93;4.50;;;;;;;33.60;27.56;98646.47;4487347;32;20080;-79
2023/09/28 10:32:54;;;;;;;10.90;4.22;;;;;;;33.87;26.97;98635.91;4488190;32;20414;-79
2023/09/28 10:35:29;;;;;;;10.18;4.50;;;;;;;33.96;25.81;98639.22;4488278;31;20092;-79
2023/09/28 10:38:22;;;;;;;11.90;4.45;;;;;;;33.09;26.30;98643.25;4487993;31;20080;-79
2023/09/28 10:41:02;;;;;;;9.90;4.50;;;;;;;33.16;28.47;98637.94;4488389;31;20136;-79
2023/09/28 10:43:37;;;;;;;10.05;4.32;;;;;;;33.25;27.94;98632.22;4488172;31;20104;-80
2023/09/28 10:46:05;;;;;;;10.57;4.22;;;;;;;32.39;26.92;98633.38;4488057;31;20600;-79
2023/09/28 10:48:40;;;;;;;12.70;4.50;;;;;;;32.52;27.36;98638.81;4487244;32;20133;-79
2023/09/28 10:51:17;;;;;;;9.48;4.20;;;;;;;31.35;29.54;98628.16;4488350;31;20119;-78
2023/09/28 10:53:44;;;;;;;11.25;4.40;;;;;;;31.49;28.80;98631.03;4487933;31;20092;-79
2023/09/28 10:56:12;;;;;;;13.10;4.40;;;;;;;31.43;28.29;98635.25;4488170;31;20447;-78
2023/09/28 10:58:41;;;;;;;11.93;4.80;;;;;;;31.75;29.67;98636.72;4487831;31;20077;-79
2023/09/28 11:01:10;;;;;;;14.63;5.10;;;;;;;31.95;28.70;98632.47;4487108;32;20103;-79
2023/09/28 11:03:38;;;;;;;10.95;4.65;;;;;;;32.95;27.63;98628.94;4487957;31;20148;-78
2023/09/28 11:06:07;;;;;;;11.05;4.78;;;;;;;32.87;28.83;98636.31;4487896;31;20176;-79
2023/09/28 11:08:39;;;;;;;12.82;4.47;;;;;;;32.53;26.53;98638.63;4488247;31;20148;-78
2023/09/28 11:11:06;;;;;;;11.20;4.40;;;;;;;32.59;27.27;98641.56;4488164;31;20072;-78
2023/09/28 11:13:34;;;;;;;10.85;4.50;;;;;;;32.25;26.62;98635.06;4487160;31;20118;-78
2023/09/28 11:16:01;;;;;;;12.25;4.20;;;;;;;32.29;27.45;98625.66;4488025;31;20588;-78
2023/09/28 11:18:28;;;;;;;13.43;5.22;;;;;;;31.88;26.38;98626.22;4486935;32;20092;-78
2023/09/28 11:20:58;;;;;;;13.93;4.47;;;;;;;32.30;26.64;98623.81;4486700;32;20403;-78
2023/09/28 11:23:27;;;;;;;11.85;4.40;;;;;;;31.97;27.68;98626.94;4488052;31;20104;-79
2023/09/28 11:25:54;;;;;;;11.15;4.30;;;;;;;31.86;28.34;98616.75;4487947;32;20122;-79
2023/09/28 11:28:23;;;;;;;13.25;4.50;;;;;;;32.60;28.63;98616.50;4487545;31;20448;-78
2023/09/28 11:31:08;;;;;;;9.30;4.45;;;;;;;32.54;27.06;98620.78;4486789;32;20160;-78
2023/09/28 11:33:36;;;;;;;10.95;3.97;;;;;;;32.79;26.88;98622.00;4487781;31;20226;-78
2023/09/28 11:36:04;;;;;;;13.62;4.72;;;;;;;32.17;26.68;98625.31;4486551;32;20809;-78